sensor_id;sensor_type;location;lat;lon;timestamp;pressure;altitude;pressure_sealevel;temperature;humidity
80405;BME280;69733;48.744;9.176;2023-04-29T00:00:45;96381.25;;;10.15;83.94
80405;BME280;69733;48.744;9.176;2023-04-29T00:03:11;96378.78;;;10.14;83.78
80405;BME280;69733;48.744;9.176;2023-04-29T00:05:36;96373.72;;;10.12;84.23
80405;BME280;69733;48.744;9.176;2023-04-29T00:08:02;96372.91;;;10.12;84.04
80405;BME280;69733;48.744;9.176;2023-04-29T00:10:28;96370.47;;;10.10;84.04
80405;BME280;69733;48.744;9.176;2023-04-29T00:12:54;96374.97;;;10.10;83.81
80405;BME280;69733;48.744;9.176;2023-04-29T00:15:19;96372.56;;;10.08;84.02
80405;BME280;69733;48.744;9.176;2023-04-29T00:17:45;96370.13;;;10.07;84.22
80405;BME280;69733;48.744;9.176;2023-04-29T00:20:11;96373.59;;;10.07;84.33
80405;BME280;69733;48.744;9.176;2023-04-29T00:22:37;96369.31;;;10.06;84.13
80405;BME280;69733;48.744;9.176;2023-04-29T00:25:03;96370.59;;;10.04;83.87
80405;BME280;69733;48.744;9.176;2023-04-29T00:27:29;96367.94;;;10.04;83.98
80405;BME280;69733;48.744;9.176;2023-04-29T00:29:54;96375.09;;;10.03;84.31
80405;BME280;69733;48.744;9.176;2023-04-29T00:32:21;96375.34;;;10.02;83.88
80405;BME280;69733;48.744;9.176;2023-04-29T00:34:47;96376.38;;;10.00;84.21
80405;BME280;69733;48.744;9.176;2023-04-29T00:37:12;96366.22;;;9.97;84.13
80405;BME280;69733;48.744;9.176;2023-04-29T00:39:37;96365.41;;;9.97;83.98
80405;BME280;69733;48.744;9.176;2023-04-29T00:42:03;96373.88;;;9.94;84.32
80405;BME280;69733;48.744;9.176;2023-04-29T00:44:28;96376.75;;;9.92;84.06
80405;BME280;69733;48.744;9.176;2023-04-29T00:46:54;96363.94;;;9.89;83.97
80405;BME280;69733;48.744;9.176;2023-04-29T00:49:20;96372.94;;;9.88;84.01
80405;BME280;69733;48.744;9.176;2023-04-29T00:51:45;96370.53;;;9.87;84.33
80405;BME280;69733;48.744;9.176;2023-04-29T00:54:12;96382.44;;;9.84;84.54
80405;BME280;69733;48.744;9.176;2023-04-29T00:56:38;96382.66;;;9.83;84.48
80405;BME280;69733;48.744;9.176;2023-04-29T00:59:08;96385.53;;;9.81;84.70
80405;BME280;69733;48.744;9.176;2023-04-29T01:01:35;96384.16;;;9.79;84.58
80405;BME280;69733;48.744;9.176;2023-04-29T01:04:01;96385.19;;;9.78;84.61
80405;BME280;69733;48.744;9.176;2023-04-29T01:06:49;96387.06;;;9.77;84.66
80405;BME280;69733;48.744;9.176;2023-04-29T01:09:46;96388.31;;;9.75;84.28
80405;BME280;69733;48.744;9.176;2023-04-29T01:12:33;96386.16;;;9.72;84.43
80405;BME280;69733;48.744;9.176;2023-04-29T01:15:08;96383.97;;;9.69;84.50
80405;BME280;69733;48.744;9.176;2023-04-29T01:17:44;96384.19;;;9.67;84.78
80405;BME280;69733;48.744;9.176;2023-04-29T01:20:12;96381.78;;;9.66;84.56
80405;BME280;69733;48.744;9.176;2023-04-29T01:22:39;96390.78;;;9.65;84.79
80405;BME280;69733;48.744;9.176;2023-04-29T01:25:05;96392.63;;;9.64;84.63
80405;BME280;69733;48.744;9.176;2023-04-29T01:28:04;96387.78;;;9.61;84.66
80405;BME280;69733;48.744;9.176;2023-04-29T01:30:49;96388.03;;;9.60;84.86
80405;BME280;69733;48.744;9.176;2023-04-29T01:33:27;96388.47;;;9.57;84.76
80405;BME280;69733;48.744;9.176;2023-04-29T01:36:41;96383.63;;;9.54;84.59
80405;BME280;69733;48.744;9.176;2023-04-29T01:41:33;96388.81;;;9.48;84.82
80405;BME280;69733;48.744;9.176;2023-04-29T01:44:01;96385.56;;;9.46;84.60
80405;BME280;69733;48.744;9.176;2023-04-29T01:46:29;96391.34;;;9.43;84.96
80405;BME280;69733;48.744;9.176;2023-04-29T01:48:55;96386.03;;;9.43;84.70
80405;BME280;69733;48.744;9.176;2023-04-29T01:51:20;96381.19;;;9.40;84.75
80405;BME280;69733;48.744;9.176;2023-04-29T01:53:46;96385.69;;;9.40;84.74
80405;BME280;69733;48.744;9.176;2023-04-29T01:56:11;96377.38;;;9.36;84.90
80405;BME280;69733;48.744;9.176;2023-04-29T01:58:36;96384.78;;;9.34;85.24
80405;BME280;69733;48.744;9.176;2023-04-29T02:01:10;96382.34;;;9.33;84.82
80405;BME280;69733;48.744;9.176;2023-04-29T02:03:36;96379.94;;;9.31;85.15
80405;BME280;69733;48.744;9.176;2023-04-29T02:06:07;96376.69;;;9.29;84.80
80405;BME280;69733;48.744;9.176;2023-04-29T02:08:32;96375.06;;;9.28;85.16
80405;BME280;69733;48.744;9.176;2023-04-29T02:10:58;96373.69;;;9.26;85.31
80405;BME280;69733;48.744;9.176;2023-04-29T02:13:24;96374.16;;;9.23;85.02
80405;BME280;69733;48.744;9.176;2023-04-29T02:15:50;96376.25;;;9.21;85.32
80405;BME280;69733;48.744;9.176;2023-04-29T02:18:15;96382.59;;;9.20;85.02
80405;BME280;69733;48.744;9.176;2023-04-29T02:20:41;96383.59;;;9.19;84.93
80405;BME280;69733;48.744;9.176;2023-04-29T02:23:06;96383.03;;;9.17;85.17
80405;BME280;69733;48.744;9.176;2023-04-29T02:25:31;96383.03;;;9.17;85.28
80405;BME280;69733;48.744;9.176;2023-04-29T02:27:57;96382.22;;;9.16;85.55
80405;BME280;69733;48.744;9.176;2023-04-29T02:30:22;96380.59;;;9.15;84.76
80405;BME280;69733;48.744;9.176;2023-04-29T02:32:47;96382.44;;;9.15;84.96
80405;BME280;69733;48.744;9.176;2023-04-29T02:35:13;96383.25;;;9.15;85.10
80405;BME280;69733;48.744;9.176;2023-04-29T02:37:38;96380.84;;;9.14;85.02
80405;BME280;69733;48.744;9.176;2023-04-29T02:40:04;96378.19;;;9.14;84.96
80405;BME280;69733;48.744;9.176;2023-04-29T02:42:30;96380.25;;;9.12;85.37
80405;BME280;69733;48.744;9.176;2023-04-29T02:44:55;96379.69;;;9.10;85.31
80405;BME280;69733;48.744;9.176;2023-04-29T02:47:21;96383.16;;;9.10;85.48
80405;BME280;69733;48.744;9.176;2023-04-29T02:49:46;96387.06;;;9.08;85.12
80405;BME280;69733;48.744;9.176;2023-04-29T02:52:11;96372.19;;;9.07;85.39
80405;BME280;69733;48.744;9.176;2023-04-29T02:54:37;96378.53;;;9.06;85.39
80405;BME280;69733;48.744;9.176;2023-04-29T02:57:02;96384.88;;;9.05;85.27
80405;BME280;69733;48.744;9.176;2023-04-29T02:59:28;96381.63;;;9.03;85.13
80405;BME280;69733;48.744;9.176;2023-04-29T03:01:53;96384.75;;;8.99;85.19
80405;BME280;69733;48.744;9.176;2023-04-29T03:04:19;96391.31;;;8.97;85.34
80405;BME280;69733;48.744;9.176;2023-04-29T03:06:44;96393.38;;;8.95;85.69
80405;BME280;69733;48.744;9.176;2023-04-29T03:09:10;96403.41;;;8.93;85.76
80405;BME280;69733;48.744;9.176;2023-04-29T03:11:36;96399.16;;;8.92;85.58
80405;BME280;69733;48.744;9.176;2023-04-29T03:14:02;96395.09;;;8.89;85.41
80405;BME280;69733;48.744;9.176;2023-04-29T03:16:27;96398.00;;;8.88;85.60
80405;BME280;69733;48.744;9.176;2023-04-29T03:18:53;96394.75;;;8.86;85.40
80405;BME280;69733;48.744;9.176;2023-04-29T03:21:18;96397.38;;;8.86;85.61
80405;BME280;69733;48.744;9.176;2023-04-29T03:23:43;96390.50;;;8.85;85.64
80405;BME280;69733;48.744;9.176;2023-04-29T03:26:09;96397.63;;;8.84;85.60
80405;BME280;69733;48.744;9.176;2023-04-29T03:28:34;96396.81;;;8.84;85.87
80405;BME280;69733;48.744;9.176;2023-04-29T03:30:59;96395.19;;;8.83;85.52
80405;BME280;69733;48.744;9.176;2023-04-29T03:33:25;96385.84;;;8.80;85.56
80405;BME280;69733;48.744;9.176;2023-04-29T03:35:51;96390.34;;;8.80;85.75
80405;BME280;69733;48.744;9.176;2023-04-29T03:38:16;96374.69;;;8.78;85.46
80405;BME280;69733;48.744;9.176;2023-04-29T03:40:41;96382.63;;;8.78;85.88
80405;BME280;69733;48.744;9.176;2023-04-29T03:43:07;96378.34;;;8.77;85.39
80405;BME280;69733;48.744;9.176;2023-04-29T03:45:33;96376.72;;;8.76;85.37
80405;BME280;69733;48.744;9.176;2023-04-29T03:47:59;96376.16;;;8.74;85.94
80405;BME280;69733;48.744;9.176;2023-04-29T03:50:24;96379.03;;;8.73;85.88
80405;BME280;69733;48.744;9.176;2023-04-29T03:52:50;96373.16;;;8.71;85.93
80405;BME280;69733;48.744;9.176;2023-04-29T03:55:15;96376.03;;;8.69;85.85
80405;BME280;69733;48.744;9.176;2023-04-29T03:57:41;96373.38;;;8.69;85.66
80405;BME280;69733;48.744;9.176;2023-04-29T04:00:07;96375.22;;;8.69;85.59
80405;BME280;69733;48.744;9.176;2023-04-29T04:02:33;96377.03;;;8.68;85.94
80405;BME280;69733;48.744;9.176;2023-04-29T04:04:59;96375.66;;;8.66;85.44
80405;BME280;69733;48.744;9.176;2023-04-29T04:07:24;96380.16;;;8.65;85.91
80405;BME280;69733;48.744;9.176;2023-04-29T04:09:49;96387.53;;;8.63;86.12
80405;BME280;69733;48.744;9.176;2023-04-29T04:12:15;96386.72;;;8.63;85.91
80405;BME280;69733;48.744;9.176;2023-04-29T04:14:40;96389.38;;;8.63;86.00
80405;BME280;69733;48.744;9.176;2023-04-29T04:17:06;96392.25;;;8.61;85.58
80405;BME280;69733;48.744;9.176;2023-04-29T04:19:31;96398.38;;;8.62;86.01
80405;BME280;69733;48.744;9.176;2023-04-29T04:21:57;96401.81;;;8.62;85.35
80405;BME280;69733;48.744;9.176;2023-04-29T04:24:23;96401.63;;;8.64;85.68
80405;BME280;69733;48.744;9.176;2023-04-29T04:26:48;96408.50;;;8.65;85.60
80405;BME280;69733;48.744;9.176;2023-04-29T04:29:13;96410.97;;;8.66;85.59
80405;BME280;69733;48.744;9.176;2023-04-29T04:31:39;96418.47;;;8.69;85.74
80405;BME280;69733;48.744;9.176;2023-04-29T04:34:04;96421.47;;;8.73;85.05
80405;BME280;69733;48.744;9.176;2023-04-29T04:36:30;96428.97;;;8.76;85.24
80405;BME280;69733;48.744;9.176;2023-04-29T04:38:56;96422.19;;;8.80;85.20
80405;BME280;69733;48.744;9.176;2023-04-29T04:41:24;96422.78;;;8.82;85.56
80405;BME280;69733;48.744;9.176;2023-04-29T04:43:50;96425.19;;;8.83;85.11
80405;BME280;69733;48.744;9.176;2023-04-29T04:46:15;96427.63;;;8.85;85.07
80405;BME280;69733;48.744;9.176;2023-04-29T04:48:41;96435.13;;;8.88;85.01
80405;BME280;69733;48.744;9.176;2023-04-29T04:51:08;96438.13;;;8.91;85.12
80405;BME280;69733;48.744;9.176;2023-04-29T04:53:34;96436.66;;;8.95;85.32
80405;BME280;69733;48.744;9.176;2023-04-29T04:56:00;96441.75;;;9.09;85.06
80405;BME280;69733;48.744;9.176;2023-04-29T04:58:26;96442.94;;;9.36;84.12
80405;BME280;69733;48.744;9.176;2023-04-29T05:00:51;96445.03;;;9.57;83.43
80405;BME280;69733;48.744;9.176;2023-04-29T05:03:19;96439.50;;;9.93;82.97
80405;BME280;69733;48.744;9.176;2023-04-29T05:05:44;96445.97;;;10.61;81.72
80405;BME280;69733;48.744;9.176;2023-04-29T05:08:10;96444.66;;;11.36;79.97
80405;BME280;69733;48.744;9.176;2023-04-29T05:10:36;96449.28;;;12.13;78.53
80405;BME280;69733;48.744;9.176;2023-04-29T05:13:01;96449.28;;;12.78;77.66
80405;BME280;69733;48.744;9.176;2023-04-29T05:15:26;96454.00;;;13.46;76.57
80405;BME280;69733;48.744;9.176;2023-04-29T05:17:52;96451.94;;;13.95;76.15
80405;BME280;69733;48.744;9.176;2023-04-29T05:20:17;96452.50;;;14.44;75.58
80405;BME280;69733;48.744;9.176;2023-04-29T05:22:44;96462.91;;;15.08;74.91
80405;BME280;69733;48.744;9.176;2023-04-29T05:25:10;96467.50;;;15.42;74.80
80405;BME280;69733;48.744;9.176;2023-04-29T05:27:35;96471.00;;;15.23;75.99
80405;BME280;69733;48.744;9.176;2023-04-29T05:30:04;96471.97;;;14.86;77.39
80405;BME280;69733;48.744;9.176;2023-04-29T05:32:30;96476.59;;;15.11;76.74
80405;BME280;69733;48.744;9.176;2023-04-29T05:34:55;96480.34;;;15.15;77.51
80405;BME280;69733;48.744;9.176;2023-04-29T05:37:20;96485.59;;;14.85;78.46
80405;BME280;69733;48.744;9.176;2023-04-29T05:39:46;96494.00;;;14.47;79.85
80405;BME280;69733;48.744;9.176;2023-04-29T05:42:11;96484.41;;;14.14;80.88
80405;BME280;69733;48.744;9.176;2023-04-29T05:44:39;96480.81;;;13.93;81.42
80405;BME280;69733;48.744;9.176;2023-04-29T05:47:05;96486.38;;;13.86;81.91
80405;BME280;69733;48.744;9.176;2023-04-29T05:49:33;96488.72;;;14.15;81.29
80405;BME280;69733;48.744;9.176;2023-04-29T05:51:58;96494.94;;;14.25;80.99
80405;BME280;69733;48.744;9.176;2023-04-29T05:54:28;96501.91;;;14.26;81.17
80405;BME280;69733;48.744;9.176;2023-04-29T05:56:53;96502.72;;;14.27;81.32
80405;BME280;69733;48.744;9.176;2023-04-29T05:59:18;96509.31;;;14.14;81.84
80405;BME280;69733;48.744;9.176;2023-04-29T06:01:46;96518.31;;;13.98;82.18
80405;BME280;69733;48.744;9.176;2023-04-29T06:04:12;96522.50;;;13.89;82.61
80405;BME280;69733;48.744;9.176;2023-04-29T06:06:37;96523.88;;;13.91;82.65
80405;BME280;69733;48.744;9.176;2023-04-29T06:09:02;96527.38;;;13.92;82.52
80405;BME280;69733;48.744;9.176;2023-04-29T06:11:28;96525.97;;;13.84;83.00
80405;BME280;69733;48.744;9.176;2023-04-29T06:13:53;96533.13;;;13.79;83.15
80405;BME280;69733;48.744;9.176;2023-04-29T06:16:25;96532.81;;;13.75;83.07
80405;BME280;69733;48.744;9.176;2023-04-29T06:18:51;96538.66;;;13.67;83.43
80405;BME280;69733;48.744;9.176;2023-04-29T06:21:16;96549.84;;;13.64;83.64
80405;BME280;69733;48.744;9.176;2023-04-29T06:23:41;96549.00;;;13.59;83.80
80405;BME280;69733;48.744;9.176;2023-04-29T06:26:06;96553.81;;;13.57;83.86
80405;BME280;69733;48.744;9.176;2023-04-29T06:28:35;96543.66;;;13.59;83.72
80405;BME280;69733;48.744;9.176;2023-04-29T06:31:03;96553.28;;;13.60;83.78
80405;BME280;69733;48.744;9.176;2023-04-29T06:33:51;96549.00;;;13.59;84.05
80405;BME280;69733;48.744;9.176;2023-04-29T06:36:17;96564.72;;;13.55;84.01
80405;BME280;69733;48.744;9.176;2023-04-29T06:38:45;96569.22;;;13.50;84.18
80405;BME280;69733;48.744;9.176;2023-04-29T06:41:13;96569.69;;;13.41;84.65
80405;BME280;69733;48.744;9.176;2023-04-29T06:43:38;96579.19;;;13.32;84.69
80405;BME280;69733;48.744;9.176;2023-04-29T06:46:04;96580.19;;;13.26;84.80
80405;BME280;69733;48.744;9.176;2023-04-29T06:48:30;96578.63;;;13.30;84.92
80405;BME280;69733;48.744;9.176;2023-04-29T06:50:56;96580.56;;;13.35;84.67
80405;BME280;69733;48.744;9.176;2023-04-29T06:53:23;96577.63;;;13.36;84.47
80405;BME280;69733;48.744;9.176;2023-04-29T06:55:49;96582.53;;;13.44;84.45
80405;BME280;69733;48.744;9.176;2023-04-29T06:58:15;96595.19;;;13.54;83.97
80405;BME280;69733;48.744;9.176;2023-04-29T07:00:45;96596.81;;;13.55;83.94
80405;BME280;69733;48.744;9.176;2023-04-29T07:03:14;96594.75;;;13.62;84.15
80405;BME280;69733;48.744;9.176;2023-04-29T07:05:40;96593.44;;;13.91;83.14
80405;BME280;69733;48.744;9.176;2023-04-29T07:08:07;96588.59;;;14.25;82.09
80405;BME280;69733;48.744;9.176;2023-04-29T07:10:35;96588.78;;;14.87;80.87
80405;BME280;69733;48.744;9.176;2023-04-29T07:13:01;96593.22;;;15.29;79.83
80405;BME280;69733;48.744;9.176;2023-04-29T07:15:26;96601.53;;;15.22;80.74
80405;BME280;69733;48.744;9.176;2023-04-29T07:17:52;96599.09;;;15.16;81.21
80405;BME280;69733;48.744;9.176;2023-04-29T07:20:17;96598.25;;;15.10;81.36
80405;BME280;69733;48.744;9.176;2023-04-29T07:22:43;96610.03;;;15.09;81.75
80405;BME280;69733;48.744;9.176;2023-04-29T07:25:09;96605.75;;;15.08;81.94
80405;BME280;69733;48.744;9.176;2023-04-29T07:27:35;96608.97;;;15.10;81.99
80405;BME280;69733;48.744;9.176;2023-04-29T07:30:00;96605.75;;;15.08;82.12
80405;BME280;69733;48.744;9.176;2023-04-29T07:32:26;96615.94;;;15.83;80.34
80405;BME280;69733;48.744;9.176;2023-04-29T07:34:51;96611.88;;;16.87;77.95
80405;BME280;69733;48.744;9.176;2023-04-29T07:37:18;96613.34;;;17.33;77.26
80405;BME280;69733;48.744;9.176;2023-04-29T07:39:43;96614.72;;;17.26;77.98
80405;BME280;69733;48.744;9.176;2023-04-29T07:42:08;96615.63;;;17.01;79.08
80405;BME280;69733;48.744;9.176;2023-04-29T07:44:34;96615.16;;;16.79;79.58
80405;BME280;69733;48.744;9.176;2023-04-29T07:47:00;96610.59;;;16.49;80.87
80405;BME280;69733;48.744;9.176;2023-04-29T07:49:25;96615.16;;;16.33;80.97
80405;BME280;69733;48.744;9.176;2023-04-29T07:51:51;96616.50;;;16.16;81.73
80405;BME280;69733;48.744;9.176;2023-04-29T07:54:16;96621.06;;;16.05;81.83
80405;BME280;69733;48.744;9.176;2023-04-29T07:56:43;96619.72;;;15.98;82.21
80405;BME280;69733;48.744;9.176;2023-04-29T07:59:08;96628.56;;;15.93;82.19
80405;BME280;69733;48.744;9.176;2023-04-29T08:01:34;96625.34;;;15.96;82.11
80405;BME280;69733;48.744;9.176;2023-04-29T08:03:59;96629.09;;;15.90;82.41
80405;BME280;69733;48.744;9.176;2023-04-29T08:06:24;96628.28;;;15.84;82.32
80405;BME280;69733;48.744;9.176;2023-04-29T08:08:50;96629.38;;;15.83;82.42
80405;BME280;69733;48.744;9.176;2023-04-29T08:11:19;96634.19;;;15.86;82.25
80405;BME280;69733;48.744;9.176;2023-04-29T08:13:45;96632.53;;;15.80;82.34
80405;BME280;69733;48.744;9.176;2023-04-29T08:16:11;96638.72;;;15.76;82.45
80405;BME280;69733;48.744;9.176;2023-04-29T08:18:37;96639.25;;;15.73;82.11
80405;BME280;69733;48.744;9.176;2023-04-29T08:21:02;96643.56;;;15.79;82.05
80405;BME280;69733;48.744;9.176;2023-04-29T08:23:28;96639.84;;;15.90;81.80
80405;BME280;69733;48.744;9.176;2023-04-29T08:25:54;96641.47;;;16.01;81.22
80405;BME280;69733;48.744;9.176;2023-04-29T08:28:20;96649.78;;;16.10;81.21
80405;BME280;69733;48.744;9.176;2023-04-29T08:30:46;96636.66;;;16.18;80.88
80405;BME280;69733;48.744;9.176;2023-04-29T08:33:11;96650.59;;;16.30;80.51
80405;BME280;69733;48.744;9.176;2023-04-29T08:35:37;96642.28;;;16.32;80.37
80405;BME280;69733;48.744;9.176;2023-04-29T08:38:03;96646.31;;;16.34;80.57
80405;BME280;69733;48.744;9.176;2023-04-29T08:40:30;96646.59;;;16.33;80.73
80405;BME280;69733;48.744;9.176;2023-04-29T08:42:56;96653.00;;;16.27;80.58
80405;BME280;69733;48.744;9.176;2023-04-29T08:45:23;96651.66;;;16.09;81.21
80405;BME280;69733;48.744;9.176;2023-04-29T08:47:49;96652.69;;;15.88;81.55
80405;BME280;69733;48.744;9.176;2023-04-29T08:50:15;96642.47;;;15.75;81.67
80405;BME280;69733;48.744;9.176;2023-04-29T08:52:42;96647.78;;;15.60;82.00
80405;BME280;69733;48.744;9.176;2023-04-29T08:55:07;96653.06;;;15.39;82.34
80405;BME280;69733;48.744;9.176;2023-04-29T08:57:35;96660.50;;;15.27;82.54
80405;BME280;69733;48.744;9.176;2023-04-29T09:00:06;96660.50;;;15.22;82.41
80405;BME280;69733;48.744;9.176;2023-04-29T09:02:31;96658.88;;;15.21;82.22
80405;BME280;69733;48.744;9.176;2023-04-29T09:05:04;96658.09;;;15.31;81.33
80405;BME280;69733;48.744;9.176;2023-04-29T09:07:32;96665.72;;;15.49;80.86
80405;BME280;69733;48.744;9.176;2023-04-29T09:10:00;96649.66;;;15.59;80.36
80405;BME280;69733;48.744;9.176;2023-04-29T09:12:26;96659.06;;;15.62;79.94
80405;BME280;69733;48.744;9.176;2023-04-29T09:14:51;96665.97;;;15.48;80.34
80405;BME280;69733;48.744;9.176;2023-04-29T09:17:16;96666.47;;;15.44;80.32
80405;BME280;69733;48.744;9.176;2023-04-29T09:19:43;96665.63;;;15.34;80.62
80405;BME280;69733;48.744;9.176;2023-04-29T09:22:08;96659.97;;;15.25;80.39
80405;BME280;69733;48.744;9.176;2023-04-29T09:24:34;96671.16;;;15.12;80.68
80405;BME280;69733;48.744;9.176;2023-04-29T09:26:59;96671.16;;;15.12;80.26
80405;BME280;69733;48.744;9.176;2023-04-29T09:29:25;96671.38;;;15.06;80.15
80405;BME280;69733;48.744;9.176;2023-04-29T09:31:51;96667.97;;;15.20;79.68
80405;BME280;69733;48.744;9.176;2023-04-29T09:34:32;96663.88;;;15.55;78.68
80405;BME280;69733;48.744;9.176;2023-04-29T09:36:57;96666.44;;;16.17;76.53
80405;BME280;69733;48.744;9.176;2023-04-29T09:39:23;96665.13;;;16.85;74.77
80405;BME280;69733;48.744;9.176;2023-04-29T09:44:40;96671.69;;;17.43;73.60
80405;BME280;69733;48.744;9.176;2023-04-29T09:47:07;96667.94;;;17.39;73.85
80405;BME280;69733;48.744;9.176;2023-04-29T09:49:35;96671.97;;;17.41;73.86
80405;BME280;69733;48.744;9.176;2023-04-29T09:52:04;96674.03;;;17.70;73.59
80405;BME280;69733;48.744;9.176;2023-04-29T09:54:31;96676.16;;;17.78;73.19
80405;BME280;69733;48.744;9.176;2023-04-29T09:56:59;96679.88;;;17.82;72.93
80405;BME280;69733;48.744;9.176;2023-04-29T09:59:25;96674.13;;;18.42;70.13
80405;BME280;69733;48.744;9.176;2023-04-29T10:01:52;96678.28;;;18.64;70.75
80405;BME280;69733;48.744;9.176;2023-04-29T10:04:20;96673.38;;;19.28;69.47
80405;BME280;69733;48.744;9.176;2023-04-29T10:07:13;96680.97;;;19.50;67.91
80405;BME280;69733;48.744;9.176;2023-04-29T10:09:38;96682.41;;;19.43;68.79
80405;BME280;69733;48.744;9.176;2023-04-29T10:12:06;96672.78;;;19.31;69.04
80405;BME280;69733;48.744;9.176;2023-04-29T10:14:37;96678.75;;;19.28;68.95
80405;BME280;69733;48.744;9.176;2023-04-29T10:17:17;96665.97;;;19.63;68.15
80405;BME280;69733;48.744;9.176;2023-04-29T10:22:28;96665.94;;;20.05;66.87
80405;BME280;69733;48.744;9.176;2023-04-29T10:24:59;96660.09;;;19.98;66.39
80405;BME280;69733;48.744;9.176;2023-04-29T10:27:26;96664.94;;;20.01;65.78
80405;BME280;69733;48.744;9.176;2023-04-29T10:29:53;96656.25;;;20.04;65.47
80405;BME280;69733;48.744;9.176;2023-04-29T10:32:20;96654.47;;;19.76;65.74
80405;BME280;69733;48.744;9.176;2023-04-29T10:34:47;96659.16;;;19.47;65.93
80405;BME280;69733;48.744;9.176;2023-04-29T10:37:13;96660.22;;;19.22;65.83
80405;BME280;69733;48.744;9.176;2023-04-29T10:40:14;96662.31;;;19.01;64.85
80405;BME280;69733;48.744;9.176;2023-04-29T10:42:50;96659.63;;;19.01;64.88
80405;BME280;69733;48.744;9.176;2023-04-29T10:53:18;96653.31;;;19.82;61.54
80405;BME280;69733;48.744;9.176;2023-04-29T10:55:57;96645.13;;;19.68;61.83
80405;BME280;69733;48.744;9.176;2023-04-29T10:58:41;96651.56;;;19.49;61.52
80405;BME280;69733;48.744;9.176;2023-04-29T11:01:15;96647.41;;;19.32;60.72
80405;BME280;69733;48.744;9.176;2023-04-29T11:03:54;96655.91;;;18.97;61.10
80405;BME280;69733;48.744;9.176;2023-04-29T11:14:35;96649.31;;;18.79;59.02
80405;BME280;69733;48.744;9.176;2023-04-29T11:17:02;96648.59;;;18.74;58.61
80405;BME280;69733;48.744;9.176;2023-04-29T11:19:39;96637.78;;;18.74;58.43
80405;BME280;69733;48.744;9.176;2023-04-29T11:22:10;96655.22;;;18.53;58.03
80405;BME280;69733;48.744;9.176;2023-04-29T11:24:46;96651.25;;;18.40;57.33
80405;BME280;69733;48.744;9.176;2023-04-29T11:27:13;96657.19;;;18.37;58.08
80405;BME280;69733;48.744;9.176;2023-04-29T11:29:39;96650.91;;;18.47;57.63
80405;BME280;69733;48.744;9.176;2023-04-29T11:32:06;96647.63;;;18.60;57.26
80405;BME280;69733;48.744;9.176;2023-04-29T11:34:32;96639.94;;;18.72;56.13
80405;BME280;69733;48.744;9.176;2023-04-29T11:36:57;96643.44;;;18.77;55.82
80405;BME280;69733;48.744;9.176;2023-04-29T11:39:22;96639.97;;;18.96;55.28
80405;BME280;69733;48.744;9.176;2023-04-29T11:41:48;96632.44;;;19.21;54.80
80405;BME280;69733;48.744;9.176;2023-04-29T11:44:13;96630.88;;;19.15;54.33
80405;BME280;69733;48.744;9.176;2023-04-29T11:46:39;96635.81;;;19.08;54.27
80405;BME280;69733;48.744;9.176;2023-04-29T11:49:07;96643.84;;;19.13;54.25
80405;BME280;69733;48.744;9.176;2023-04-29T11:51:32;96636.91;;;19.07;52.72
80405;BME280;69733;48.744;9.176;2023-04-29T11:53:58;96646.66;;;19.03;53.84
80405;BME280;69733;48.744;9.176;2023-04-29T11:56:23;96641.44;;;18.88;53.02
80405;BME280;69733;48.744;9.176;2023-04-29T11:58:55;96638.19;;;18.86;53.61
80405;BME280;69733;48.744;9.176;2023-04-29T12:01:22;96637.84;;;18.93;52.05
80405;BME280;69733;48.744;9.176;2023-04-29T12:03:48;96642.38;;;19.02;53.01
80405;BME280;69733;48.744;9.176;2023-04-29T12:06:14;96645.94;;;18.93;53.00
80405;BME280;69733;48.744;9.176;2023-04-29T12:08:39;96650.94;;;18.80;52.89
80405;BME280;69733;48.744;9.176;2023-04-29T12:11:06;96653.97;;;18.74;53.70
80405;BME280;69733;48.744;9.176;2023-04-29T12:13:35;96656.69;;;18.98;53.02
80405;BME280;69733;48.744;9.176;2023-04-29T12:16:21;96656.88;;;19.06;52.71
80405;BME280;69733;48.744;9.176;2023-04-29T12:18:49;96659.03;;;19.09;52.36
80405;BME280;69733;48.744;9.176;2023-04-29T12:21:15;96654.03;;;18.93;53.26
80405;BME280;69733;48.744;9.176;2023-04-29T12:23:40;96656.50;;;18.89;53.10
80405;BME280;69733;48.744;9.176;2023-04-29T12:26:05;65827.00;;;-141.59;100.00
80405;BME280;69733;48.744;9.176;2023-04-29T12:28:30;96666.53;;;18.83;53.20
80405;BME280;69733;48.744;9.176;2023-04-29T12:30:57;96671.16;;;18.78;53.31
80405;BME280;69733;48.744;9.176;2023-04-29T12:33:25;96660.34;;;18.83;53.55
80405;BME280;69733;48.744;9.176;2023-04-29T12:35:52;96659.44;;;18.93;52.84
80405;BME280;69733;48.744;9.176;2023-04-29T12:38:21;96670.22;;;18.93;52.63
80405;BME280;69733;48.744;9.176;2023-04-29T12:40:47;96665.63;;;18.93;52.82
80405;BME280;69733;48.744;9.176;2023-04-29T12:43:25;96666.22;;;18.90;52.74
80405;BME280;69733;48.744;9.176;2023-04-29T12:45:53;96671.13;;;18.83;53.04
80405;BME280;69733;48.744;9.176;2023-04-29T12:48:19;96667.13;;;18.80;53.42
80405;BME280;69733;48.744;9.176;2023-04-29T12:50:48;96675.69;;;18.87;53.43
80405;BME280;69733;48.744;9.176;2023-04-29T12:53:18;96682.47;;;18.80;53.15
80405;BME280;69733;48.744;9.176;2023-04-29T12:55:43;96681.84;;;18.59;53.27
80405;BME280;69733;48.744;9.176;2023-04-29T12:58:09;96670.31;;;18.49;53.27
80405;BME280;69733;48.744;9.176;2023-04-29T13:00:34;96673.56;;;18.51;53.29
80405;BME280;69733;48.744;9.176;2023-04-29T13:03:01;96675.97;;;18.52;53.54
80405;BME280;69733;48.744;9.176;2023-04-29T13:05:26;96668.72;;;18.42;53.46
80405;BME280;69733;48.744;9.176;2023-04-29T13:07:52;96669.38;;;18.29;53.56
80405;BME280;69733;48.744;9.176;2023-04-29T13:10:17;96674.28;;;18.22;53.63
80405;BME280;69733;48.744;9.176;2023-04-29T13:12:42;96669.47;;;18.14;53.43
80405;BME280;69733;48.744;9.176;2023-04-29T13:15:08;96673.88;;;18.00;53.71
80405;BME280;69733;48.744;9.176;2023-04-29T13:17:34;96671.28;;;17.85;54.08
80405;BME280;69733;48.744;9.176;2023-04-29T13:20:02;96675.63;;;17.76;54.09
80405;BME280;69733;48.744;9.176;2023-04-29T13:22:27;96682.66;;;17.67;54.26
80405;BME280;69733;48.744;9.176;2023-04-29T13:24:53;96683.50;;;17.57;54.28
80405;BME280;69733;48.744;9.176;2023-04-29T13:27:18;96691.31;;;17.43;54.83